sensor_id;sensor_type;location;lat;lon;timestamp;temperature;humidity
17152;DHT22;8691;50.828;4.700;2022-12-07T00:00:36;4.70;99.90
17152;DHT22;8691;50.828;4.700;2022-12-07T00:03:04;4.70;99.90
17152;DHT22;8691;50.828;4.700;2022-12-07T00:05:30;4.70;99.90
17152;DHT22;8691;50.828;4.700;2022-12-07T00:07:58;4.60;99.90
17152;DHT22;8691;50.828;4.700;2022-12-07T00:10:24;4.60;99.90
17152;DHT22;8691;50.828;4.700;2022-12-07T00:12:52;4.50;99.90
17152;DHT22;8691;50.828;4.700;2022-12-07T00:15:18;4.50;99.90
17152;DHT22;8691;50.828;4.700;2022-12-07T00:17:46;4.50;99.90
17152;DHT22;8691;50.828;4.700;2022-12-07T00:20:12;4.50;99.90
17152;DHT22;8691;50.828;4.700;2022-12-07T00:22:39;4.50;99.90
17152;DHT22;8691;50.828;4.700;2022-12-07T00:25:05;4.50;99.90
17152;DHT22;8691;50.828;4.700;2022-12-07T00:27:32;4.50;99.90
17152;DHT22;8691;50.828;4.700;2022-12-07T00:29:59;4.50;99.90
17152;DHT22;8691;50.828;4.700;2022-12-07T00:32:26;4.50;99.90
17152;DHT22;8691;50.828;4.700;2022-12-07T00:34:53;4.50;99.90
17152;DHT22;8691;50.828;4.700;2022-12-07T00:37:19;4.50;99.90
17152;DHT22;8691;50.828;4.700;2022-12-07T00:39:47;4.50;99.90
17152;DHT22;8691;50.828;4.700;2022-12-07T00:42:13;4.50;99.90
17152;DHT22;8691;50.828;4.700;2022-12-07T00:44:41;4.40;99.90
17152;DHT22;8691;50.828;4.700;2022-12-07T00:47:07;4.30;99.90
17152;DHT22;8691;50.828;4.700;2022-12-07T00:49:35;4.20;99.90
17152;DHT22;8691;50.828;4.700;2022-12-07T00:52:01;4.20;99.90
17152;DHT22;8691;50.828;4.700;2022-12-07T00:54:29;4.10;99.90
17152;DHT22;8691;50.828;4.700;2022-12-07T00:56:55;4.10;99.90
17152;DHT22;8691;50.828;4.700;2022-12-07T00:59:23;4.00;99.90
17152;DHT22;8691;50.828;4.700;2022-12-07T01:01:49;4.00;99.90
17152;DHT22;8691;50.828;4.700;2022-12-07T01:04:16;4.00;99.90
17152;DHT22;8691;50.828;4.700;2022-12-07T01:06:43;4.00;99.90
17152;DHT22;8691;50.828;4.700;2022-12-07T01:09:09;4.10;99.90
17152;DHT22;8691;50.828;4.700;2022-12-07T01:11:36;4.10;99.90
17152;DHT22;8691;50.828;4.700;2022-12-07T01:14:03;4.20;99.90
17152;DHT22;8691;50.828;4.700;2022-12-07T01:16:30;4.20;99.90
17152;DHT22;8691;50.828;4.700;2022-12-07T01:18:56;4.20;99.90
17152;DHT22;8691;50.828;4.700;2022-12-07T01:21:27;4.30;99.90
17152;DHT22;8691;50.828;4.700;2022-12-07T01:23:53;4.30;99.90
17152;DHT22;8691;50.828;4.700;2022-12-07T01:26:21;4.30;99.90
17152;DHT22;8691;50.828;4.700;2022-12-07T01:28:46;4.30;99.90
17152;DHT22;8691;50.828;4.700;2022-12-07T01:31:14;4.30;99.90
17152;DHT22;8691;50.828;4.700;2022-12-07T01:33:39;4.20;99.90
17152;DHT22;8691;50.828;4.700;2022-12-07T01:36:18;4.00;99.90
17152;DHT22;8691;50.828;4.700;2022-12-07T01:38:44;3.90;99.90
17152;DHT22;8691;50.828;4.700;2022-12-07T01:41:11;3.90;99.90
17152;DHT22;8691;50.828;4.700;2022-12-07T01:44:06;3.80;99.90
17152;DHT22;8691;50.828;4.700;2022-12-07T01:46:04;3.80;99.90
17152;DHT22;8691;50.828;4.700;2022-12-07T01:48:32;3.70;99.90
17152;DHT22;8691;50.828;4.700;2022-12-07T01:50:59;3.60;99.90
17152;DHT22;8691;50.828;4.700;2022-12-07T01:53:24;3.50;99.90
17152;DHT22;8691;50.828;4.700;2022-12-07T01:55:50;3.50;99.90
17152;DHT22;8691;50.828;4.700;2022-12-07T01:58:17;3.50;99.90
17152;DHT22;8691;50.828;4.700;2022-12-07T02:00:44;3.40;99.90
17152;DHT22;8691;50.828;4.700;2022-12-07T02:03:16;3.50;99.90
17152;DHT22;8691;50.828;4.700;2022-12-07T02:05:40;3.50;99.90
17152;DHT22;8691;50.828;4.700;2022-12-07T02:08:07;3.60;99.90
17152;DHT22;8691;50.828;4.700;2022-12-07T02:10:33;3.70;99.90
17152;DHT22;8691;50.828;4.700;2022-12-07T02:21:02;4.10;99.90
17152;DHT22;8691;50.828;4.700;2022-12-07T02:28:58;4.20;99.90
17152;DHT22;8691;50.828;4.700;2022-12-07T02:31:22;4.10;99.90
17152;DHT22;8691;50.828;4.700;2022-12-07T02:33:50;4.10;99.90
17152;DHT22;8691;50.828;4.700;2022-12-07T02:36:39;4.10;99.90
17152;DHT22;8691;50.828;4.700;2022-12-07T02:38:58;4.10;99.90
17152;DHT22;8691;50.828;4.700;2022-12-07T02:41:37;4.10;99.90
17152;DHT22;8691;50.828;4.700;2022-12-07T02:44:13;4.10;99.90
17152;DHT22;8691;50.828;4.700;2022-12-07T02:46:33;4.10;99.90
17152;DHT22;8691;50.828;4.700;2022-12-07T02:48:59;4.20;99.90
17152;DHT22;8691;50.828;4.700;2022-12-07T02:51:25;4.20;99.90
17152;DHT22;8691;50.828;4.700;2022-12-07T02:53:52;4.10;99.90
17152;DHT22;8691;50.828;4.700;2022-12-07T02:56:39;4.20;99.90
17152;DHT22;8691;50.828;4.700;2022-12-07T03:01:40;4.20;99.90
17152;DHT22;8691;50.828;4.700;2022-12-07T03:04:08;4.20;99.90
17152;DHT22;8691;50.828;4.700;2022-12-07T03:06:31;4.10;99.90
17152;DHT22;8691;50.828;4.700;2022-12-07T03:09:00;4.10;99.90
17152;DHT22;8691;50.828;4.700;2022-12-07T03:11:29;4.10;99.90
17152;DHT22;8691;50.828;4.700;2022-12-07T03:14:08;4.10;99.90
17152;DHT22;8691;50.828;4.700;2022-12-07T03:16:35;4.10;99.90
17152;DHT22;8691;50.828;4.700;2022-12-07T03:19:06;4.00;99.90
17152;DHT22;8691;50.828;4.700;2022-12-07T03:21:40;4.00;99.90
17152;DHT22;8691;50.828;4.700;2022-12-07T03:24:05;3.90;99.90
17152;DHT22;8691;50.828;4.700;2022-12-07T03:26:31;3.90;99.90
17152;DHT22;8691;50.828;4.700;2022-12-07T03:28:58;3.90;99.90
17152;DHT22;8691;50.828;4.700;2022-12-07T03:31:31;3.90;99.90
17152;DHT22;8691;50.828;4.700;2022-12-07T03:34:14;3.80;99.90
17152;DHT22;8691;50.828;4.700;2022-12-07T03:36:44;3.80;99.90
17152;DHT22;8691;50.828;4.700;2022-12-07T03:39:25;3.80;99.90
17152;DHT22;8691;50.828;4.700;2022-12-07T03:41:49;3.80;99.90
17152;DHT22;8691;50.828;4.700;2022-12-07T03:44:16;3.90;99.90
17152;DHT22;8691;50.828;4.700;2022-12-07T03:54:34;4.00;99.90
17152;DHT22;8691;50.828;4.700;2022-12-07T03:56:59;4.00;99.90
17152;DHT22;8691;50.828;4.700;2022-12-07T03:59:26;4.00;99.90
17152;DHT22;8691;50.828;4.700;2022-12-07T04:01:54;4.00;99.90
17152;DHT22;8691;50.828;4.700;2022-12-07T04:04:19;4.00;99.90
17152;DHT22;8691;50.828;4.700;2022-12-07T04:06:46;4.00;99.90
17152;DHT22;8691;50.828;4.700;2022-12-07T04:09:13;3.90;99.90
17152;DHT22;8691;50.828;4.700;2022-12-07T04:11:40;3.90;99.90
17152;DHT22;8691;50.828;4.700;2022-12-07T04:14:07;3.70;99.90
17152;DHT22;8691;50.828;4.700;2022-12-07T04:16:50;3.70;99.90
17152;DHT22;8691;50.828;4.700;2022-12-07T04:19:16;3.70;99.90
17152;DHT22;8691;50.828;4.700;2022-12-07T04:21:42;3.70;99.90
17152;DHT22;8691;50.828;4.700;2022-12-07T04:24:09;3.70;99.90
17152;DHT22;8691;50.828;4.700;2022-12-07T04:26:36;3.70;99.90
17152;DHT22;8691;50.828;4.700;2022-12-07T04:29:03;3.70;99.90
17152;DHT22;8691;50.828;4.700;2022-12-07T04:31:30;3.60;99.90
17152;DHT22;8691;50.828;4.700;2022-12-07T04:33:56;3.50;99.90
17152;DHT22;8691;50.828;4.700;2022-12-07T04:36:23;3.40;99.90
17152;DHT22;8691;50.828;4.700;2022-12-07T04:38:52;3.30;99.90
17152;DHT22;8691;50.828;4.700;2022-12-07T04:41:17;3.20;99.90
17152;DHT22;8691;50.828;4.700;2022-12-07T04:43:44;3.10;99.90
17152;DHT22;8691;50.828;4.700;2022-12-07T04:46:11;3.00;99.90
17152;DHT22;8691;50.828;4.700;2022-12-07T04:48:38;3.00;99.90
17152;DHT22;8691;50.828;4.700;2022-12-07T04:51:05;2.90;99.90
17152;DHT22;8691;50.828;4.700;2022-12-07T04:53:31;3.00;99.90
17152;DHT22;8691;50.828;4.700;2022-12-07T04:55:58;3.00;99.90
17152;DHT22;8691;50.828;4.700;2022-12-07T04:58:25;2.90;99.90
17152;DHT22;8691;50.828;4.700;2022-12-07T05:00:55;2.90;99.90
17152;DHT22;8691;50.828;4.700;2022-12-07T05:03:19;2.90;99.90
17152;DHT22;8691;50.828;4.700;2022-12-07T05:05:46;3.00;99.90
17152;DHT22;8691;50.828;4.700;2022-12-07T05:08:13;3.00;99.90
17152;DHT22;8691;50.828;4.700;2022-12-07T05:10:39;3.00;99.90
17152;DHT22;8691;50.828;4.700;2022-12-07T05:13:06;2.90;99.90
17152;DHT22;8691;50.828;4.700;2022-12-07T05:15:33;2.70;99.90
17152;DHT22;8691;50.828;4.700;2022-12-07T05:17:59;2.70;99.90
17152;DHT22;8691;50.828;4.700;2022-12-07T05:20:27;2.50;99.90
17152;DHT22;8691;50.828;4.700;2022-12-07T05:22:53;2.50;99.90
17152;DHT22;8691;50.828;4.700;2022-12-07T05:25:20;2.50;99.90
17152;DHT22;8691;50.828;4.700;2022-12-07T05:27:47;2.40;99.90
17152;DHT22;8691;50.828;4.700;2022-12-07T05:30:14;2.40;99.90
17152;DHT22;8691;50.828;4.700;2022-12-07T05:32:41;2.40;99.90
17152;DHT22;8691;50.828;4.700;2022-12-07T05:35:07;2.50;99.90
17152;DHT22;8691;50.828;4.700;2022-12-07T05:37:34;2.60;99.90
17152;DHT22;8691;50.828;4.700;2022-12-07T05:40:01;2.70;99.90
17152;DHT22;8691;50.828;4.700;2022-12-07T05:42:27;2.80;99.90
17152;DHT22;8691;50.828;4.700;2022-12-07T05:44:54;2.90;99.90
17152;DHT22;8691;50.828;4.700;2022-12-07T05:47:20;3.00;99.90
17152;DHT22;8691;50.828;4.700;2022-12-07T05:49:47;3.10;99.90
17152;DHT22;8691;50.828;4.700;2022-12-07T05:52:14;3.20;99.90
17152;DHT22;8691;50.828;4.700;2022-12-07T05:54:41;3.20;99.90
17152;DHT22;8691;50.828;4.700;2022-12-07T05:57:08;3.20;99.90
17152;DHT22;8691;50.828;4.700;2022-12-07T05:59:35;3.20;99.90
17152;DHT22;8691;50.828;4.700;2022-12-07T06:02:05;3.20;99.90
17152;DHT22;8691;50.828;4.700;2022-12-07T06:04:32;3.10;99.90
17152;DHT22;8691;50.828;4.700;2022-12-07T06:06:58;3.00;99.90
17152;DHT22;8691;50.828;4.700;2022-12-07T06:09:25;2.90;99.90
17152;DHT22;8691;50.828;4.700;2022-12-07T06:11:51;2.80;99.90
17152;DHT22;8691;50.828;4.700;2022-12-07T06:14:35;2.70;99.90
17152;DHT22;8691;50.828;4.700;2022-12-07T06:17:02;2.70;99.90
17152;DHT22;8691;50.828;4.700;2022-12-07T06:19:29;2.70;99.90
17152;DHT22;8691;50.828;4.700;2022-12-07T06:21:55;2.70;99.90
17152;DHT22;8691;50.828;4.700;2022-12-07T06:24:22;2.80;99.90
17152;DHT22;8691;50.828;4.700;2022-12-07T06:26:49;2.80;99.90
17152;DHT22;8691;50.828;4.700;2022-12-07T06:29:15;2.80;99.90
17152;DHT22;8691;50.828;4.700;2022-12-07T06:31:42;2.80;99.90
17152;DHT22;8691;50.828;4.700;2022-12-07T06:34:10;2.90;99.90
17152;DHT22;8691;50.828;4.700;2022-12-07T06:36:36;2.80;99.90
17152;DHT22;8691;50.828;4.700;2022-12-07T06:39:03;2.90;99.90
17152;DHT22;8691;50.828;4.700;2022-12-07T06:41:29;3.00;99.90
17152;DHT22;8691;50.828;4.700;2022-12-07T06:43:56;3.00;99.90
17152;DHT22;8691;50.828;4.700;2022-12-07T06:46:23;3.10;99.90
17152;DHT22;8691;50.828;4.700;2022-12-07T06:48:50;3.20;99.90
17152;DHT22;8691;50.828;4.700;2022-12-07T06:51:17;3.20;99.90
17152;DHT22;8691;50.828;4.700;2022-12-07T06:53:44;3.30;99.90
17152;DHT22;8691;50.828;4.700;2022-12-07T06:56:11;3.30;99.90
17152;DHT22;8691;50.828;4.700;2022-12-07T06:58:38;3.20;99.90
17152;DHT22;8691;50.828;4.700;2022-12-07T07:01:15;3.20;99.90
17152;DHT22;8691;50.828;4.700;2022-12-07T07:03:38;3.00;99.90
17152;DHT22;8691;50.828;4.700;2022-12-07T07:06:05;3.00;99.90
17152;DHT22;8691;50.828;4.700;2022-12-07T07:08:31;2.90;99.90
17152;DHT22;8691;50.828;4.700;2022-12-07T07:10:58;2.90;99.90
17152;DHT22;8691;50.828;4.700;2022-12-07T07:13:25;2.90;99.90
17152;DHT22;8691;50.828;4.700;2022-12-07T07:15:52;2.90;99.90
17152;DHT22;8691;50.828;4.700;2022-12-07T07:18:19;2.80;99.90
17152;DHT22;8691;50.828;4.700;2022-12-07T07:20:46;2.90;99.90
17152;DHT22;8691;50.828;4.700;2022-12-07T07:23:13;2.90;99.90
17152;DHT22;8691;50.828;4.700;2022-12-07T07:25:39;2.90;99.90
17152;DHT22;8691;50.828;4.700;2022-12-07T07:28:06;3.00;99.90
17152;DHT22;8691;50.828;4.700;2022-12-07T07:30:32;3.00;99.90
17152;DHT22;8691;50.828;4.700;2022-12-07T07:33:00;3.00;99.90
17152;DHT22;8691;50.828;4.700;2022-12-07T07:35:27;3.10;99.90
17152;DHT22;8691;50.828;4.700;2022-12-07T07:37:53;3.10;99.90
17152;DHT22;8691;50.828;4.700;2022-12-07T07:40:20;3.20;99.90
17152;DHT22;8691;50.828;4.700;2022-12-07T07:42:50;3.20;99.90
17152;DHT22;8691;50.828;4.700;2022-12-07T07:45:16;3.20;99.90
17152;DHT22;8691;50.828;4.700;2022-12-07T07:47:43;3.20;99.90
17152;DHT22;8691;50.828;4.700;2022-12-07T07:50:11;3.20;99.90
17152;DHT22;8691;50.828;4.700;2022-12-07T07:52:38;3.20;99.90
17152;DHT22;8691;50.828;4.700;2022-12-07T07:55:05;3.20;99.90
17152;DHT22;8691;50.828;4.700;2022-12-07T07:57:31;3.20;99.90
17152;DHT22;8691;50.828;4.700;2022-12-07T07:59:59;3.30;99.90
17152;DHT22;8691;50.828;4.700;2022-12-07T08:02:25;3.20;99.90
17152;DHT22;8691;50.828;4.700;2022-12-07T08:04:53;3.40;99.90
17152;DHT22;8691;50.828;4.700;2022-12-07T08:07:19;3.30;99.90
17152;DHT22;8691;50.828;4.700;2022-12-07T08:09:47;3.40;99.90
17152;DHT22;8691;50.828;4.700;2022-12-07T08:12:13;3.40;99.90
17152;DHT22;8691;50.828;4.700;2022-12-07T08:14:41;3.40;99.90
17152;DHT22;8691;50.828;4.700;2022-12-07T08:17:07;3.40;99.90
17152;DHT22;8691;50.828;4.700;2022-12-07T08:19:35;3.30;99.90
17152;DHT22;8691;50.828;4.700;2022-12-07T08:22:01;3.30;99.90
17152;DHT22;8691;50.828;4.700;2022-12-07T08:24:29;3.10;99.90
17152;DHT22;8691;50.828;4.700;2022-12-07T08:26:55;3.10;99.90
17152;DHT22;8691;50.828;4.700;2022-12-07T08:29:22;3.10;99.90
17152;DHT22;8691;50.828;4.700;2022-12-07T08:31:49;3.00;99.90
17152;DHT22;8691;50.828;4.700;2022-12-07T08:34:16;3.00;99.90
17152;DHT22;8691;50.828;4.700;2022-12-07T08:36:42;3.00;99.90
17152;DHT22;8691;50.828;4.700;2022-12-07T08:39:09;3.10;99.90
17152;DHT22;8691;50.828;4.700;2022-12-07T08:41:36;3.40;99.90
17152;DHT22;8691;50.828;4.700;2022-12-07T08:44:02;4.10;99.90
17152;DHT22;8691;50.828;4.700;2022-12-07T08:46:44;5.20;99.90
17152;DHT22;8691;50.828;4.700;2022-12-07T08:49:13;5.50;99.90
17152;DHT22;8691;50.828;4.700;2022-12-07T08:51:35;5.50;99.90
17152;DHT22;8691;50.828;4.700;2022-12-07T08:54:03;5.80;99.90
17152;DHT22;8691;50.828;4.700;2022-12-07T08:56:28;6.10;99.90
17152;DHT22;8691;50.828;4.700;2022-12-07T08:58:55;6.50;99.90
17152;DHT22;8691;50.828;4.700;2022-12-07T09:01:22;7.20;99.90
17152;DHT22;8691;50.828;4.700;2022-12-07T09:03:48;7.70;99.90
17152;DHT22;8691;50.828;4.700;2022-12-07T09:06:15;8.30;99.90
17152;DHT22;8691;50.828;4.700;2022-12-07T09:08:46;9.10;99.90
17152;DHT22;8691;50.828;4.700;2022-12-07T09:11:10;9.00;99.90
17152;DHT22;8691;50.828;4.700;2022-12-07T09:13:36;9.10;99.90
17152;DHT22;8691;50.828;4.700;2022-12-07T09:16:03;9.00;99.90
17152;DHT22;8691;50.828;4.700;2022-12-07T09:18:29;8.80;99.90
17152;DHT22;8691;50.828;4.700;2022-12-07T09:20:56;8.40;99.90
17152;DHT22;8691;50.828;4.700;2022-12-07T09:23:23;8.00;99.90
17152;DHT22;8691;50.828;4.700;2022-12-07T09:25:49;7.60;99.90
17152;DHT22;8691;50.828;4.700;2022-12-07T09:28:17;7.00;99.90
17152;DHT22;8691;50.828;4.700;2022-12-07T09:30:47;7.00;99.90
17152;DHT22;8691;50.828;4.700;2022-12-07T09:33:13;6.70;99.90
17152;DHT22;8691;50.828;4.700;2022-12-07T09:35:51;6.30;99.90
17152;DHT22;8691;50.828;4.700;2022-12-07T09:38:17;6.30;99.90
17152;DHT22;8691;50.828;4.700;2022-12-07T09:40:43;6.20;99.90
17152;DHT22;8691;50.828;4.700;2022-12-07T09:43:17;6.20;99.90
17152;DHT22;8691;50.828;4.700;2022-12-07T09:45:42;6.10;99.90
17152;DHT22;8691;50.828;4.700;2022-12-07T09:48:18;6.10;99.90
17152;DHT22;8691;50.828;4.700;2022-12-07T09:50:44;6.00;99.90
17152;DHT22;8691;50.828;4.700;2022-12-07T09:53:25;6.00;99.90
17152;DHT22;8691;50.828;4.700;2022-12-07T09:55:50;6.10;99.90
17152;DHT22;8691;50.828;4.700;2022-12-07T09:58:23;6.30;99.90
17152;DHT22;8691;50.828;4.700;2022-12-07T10:00:46;6.40;99.90
17152;DHT22;8691;50.828;4.700;2022-12-07T10:03:13;6.50;99.90
17152;DHT22;8691;50.828;4.700;2022-12-07T10:05:43;6.60;99.90
17152;DHT22;8691;50.828;4.700;2022-12-07T10:08:12;6.70;99.90
17152;DHT22;8691;50.828;4.700;2022-12-07T10:10:35;6.80;99.90
17152;DHT22;8691;50.828;4.700;2022-12-07T10:13:03;6.80;99.90
17152;DHT22;8691;50.828;4.700;2022-12-07T10:15:42;6.90;99.90
17152;DHT22;8691;50.828;4.700;2022-12-07T10:18:16;7.00;99.90
17152;DHT22;8691;50.828;4.700;2022-12-07T10:20:33;7.00;99.90
17152;DHT22;8691;50.828;4.700;2022-12-07T10:23:04;7.10;99.90
17152;DHT22;8691;50.828;4.700;2022-12-07T10:25:34;7.10;99.90
17152;DHT22;8691;50.828;4.700;2022-12-07T10:28:16;7.10;99.90
17152;DHT22;8691;50.828;4.700;2022-12-07T10:30:56;7.00;99.90
17152;DHT22;8691;50.828;4.700;2022-12-07T10:33:31;7.00;99.90
17152;DHT22;8691;50.828;4.700;2022-12-07T10:35:56;7.20;99.90
17152;DHT22;8691;50.828;4.700;2022-12-07T10:38:24;7.30;99.90
17152;DHT22;8691;50.828;4.700;2022-12-07T10:40:50;7.30;99.90
17152;DHT22;8691;50.828;4.700;2022-12-07T10:43:18;7.30;99.90
17152;DHT22;8691;50.828;4.700;2022-12-07T10:46:17;7.20;99.90
17152;DHT22;8691;50.828;4.700;2022-12-07T10:48:40;7.30;99.90
17152;DHT22;8691;50.828;4.700;2022-12-07T10:51:12;7.30;99.90
17152;DHT22;8691;50.828;4.700;2022-12-07T10:56:38;7.40;99.90
17152;DHT22;8691;50.828;4.700;2022-12-07T10:59:23;7.60;99.90
17152;DHT22;8691;50.828;4.700;2022-12-07T11:10:18;8.00;99.90
17152;DHT22;8691;50.828;4.700;2022-12-07T11:16:11;8.00;99.90
17152;DHT22;8691;50.828;4.700;2022-12-07T11:18:59;7.90;99.90
17152;DHT22;8691;50.828;4.700;2022-12-07T11:24:14;7.90;99.90
17152;DHT22;8691;50.828;4.700;2022-12-07T11:37:28;8.70;99.90
17152;DHT22;8691;50.828;4.700;2022-12-07T11:39:54;9.00;99.90
17152;DHT22;8691;50.828;4.700;2022-12-07T11:42:18;9.10;99.90
17152;DHT22;8691;50.828;4.700;2022-12-07T11:44:47;9.30;99.90
17152;DHT22;8691;50.828;4.700;2022-12-07T11:47:42;9.60;99.90
17152;DHT22;8691;50.828;4.700;2022-12-07T11:50:18;9.50;99.90
17152;DHT22;8691;50.828;4.700;2022-12-07T11:53:00;9.40;99.90
17152;DHT22;8691;50.828;4.700;2022-12-07T11:57:53;9.20;99.90
17152;DHT22;8691;50.828;4.700;2022-12-07T12:00:19;8.90;99.90
17152;DHT22;8691;50.828;4.700;2022-12-07T12:03:01;8.90;99.90
17152;DHT22;8691;50.828;4.700;2022-12-07T12:05:24;8.60;99.90
17152;DHT22;8691;50.828;4.700;2022-12-07T12:07:59;8.30;99.90
17152;DHT22;8691;50.828;4.700;2022-12-07T12:10:37;8.30;99.90
17152;DHT22;8691;50.828;4.700;2022-12-07T12:13:24;8.30;99.90
17152;DHT22;8691;50.828;4.700;2022-12-07T12:15:54;8.30;99.90
17152;DHT22;8691;50.828;4.700;2022-12-07T12:21:01;8.30;99.90
17152;DHT22;8691;50.828;4.700;2022-12-07T12:23:22;8.40;99.90
17152;DHT22;8691;50.828;4.700;2022-12-07T12:25:49;8.50;99.90
17152;DHT22;8691;50.828;4.700;2022-12-07T12:28:19;8.60;99.90
17152;DHT22;8691;50.828;4.700;2022-12-07T12:30:44;8.70;99.90
17152;DHT22;8691;50.828;4.700;2022-12-07T12:33:22;8.80;99.90
17152;DHT22;8691;50.828;4.700;2022-12-07T12:35:46;8.80;99.90
17152;DHT22;8691;50.828;4.700;2022-12-07T12:38:47;8.80;99.90
17152;DHT22;8691;50.828;4.700;2022-12-07T12:41:01;8.60;99.90
17152;DHT22;8691;50.828;4.700;2022-12-07T12:43:43;8.50;99.90
17152;DHT22;8691;50.828;4.700;2022-12-07T12:51:46;8.20;99.90
17152;DHT22;8691;50.828;4.700;2022-12-07T12:54:18;8.10;99.90
17152;DHT22;8691;50.828;4.700;2022-12-07T12:56:50;8.10;99.90
17152;DHT22;8691;50.828;4.700;2022-12-07T12:59:25;8.10;99.90
17152;DHT22;8691;50.828;4.700;2022-12-07T13:01:50;8.10;99.90
17152;DHT22;8691;50.828;4.700;2022-12-07T13:07:11;8.30;99.90
17152;DHT22;8691;50.828;4.700;2022-12-07T13:09:37;8.40;99.90
17152;DHT22;8691;50.828;4.700;2022-12-07T13:12:05;8.20;99.90
17152;DHT22;8691;50.828;4.700;2022-12-07T13:17:04;7.80;99.90
17152;DHT22;8691;50.828;4.700;2022-12-07T13:27:43;7.30;99.90
17152;DHT22;8691;50.828;4.700;2022-12-07T13:30:17;7.30;99.90
17152;DHT22;8691;50.828;4.700;2022-12-07T13:32:43;7.30;99.90
17152;DHT22;8691;50.828;4.700;2022-12-07T13:37:55;7.50;99.90
17152;DHT22;8691;50.828;4.700;2022-12-07T13:40:23;7.80;99.90
17152;DHT22;8691;50.828;4.700;2022-12-07T13:43:00;7.80;99.90
17152;DHT22;8691;50.828;4.700;2022-12-07T13:45:29;7.90;99.90
17152;DHT22;8691;50.828;4.700;2022-12-07T13:48:45;7.80;99.90
17152;DHT22;8691;50.828;4.700;2022-12-07T13:51:36;7.80;99.90
17152;DHT22;8691;50.828;4.700;2022-12-07T13:53:47;7.70;99.90
17152;DHT22;8691;50.828;4.700;2022-12-07T13:56:13;7.70;99.90
17152;DHT22;8691;50.828;4.700;2022-12-07T13:58:39;7.70;99.90
17152;DHT22;8691;50.828;4.700;2022-12-07T14:01:06;7.70;99.90
17152;DHT22;8691;50.828;4.700;2022-12-07T14:03:33;7.70;99.90
17152;DHT22;8691;50.828;4.700;2022-12-07T14:06:04;7.70;99.90
17152;DHT22;8691;50.828;4.700;2022-12-07T14:08:29;7.70;99.90
17152;DHT22;8691;50.828;4.700;2022-12-07T14:10:57;7.70;99.90
17152;DHT22;8691;50.828;4.700;2022-12-07T14:13:32;7.70;99.90
17152;DHT22;8691;50.828;4.700;2022-12-07T14:15:58;7.70;99.90
17152;DHT22;8691;50.828;4.700;2022-12-07T14:18:37;7.70;99.90
17152;DHT22;8691;50.828;4.700;2022-12-07T14:21:14;7.70;99.90
17152;DHT22;8691;50.828;4.700;2022-12-07T14:23:33;7.70;99.90
17152;DHT22;8691;50.828;4.700;2022-12-07T14:26:19;7.60;99.90
17152;DHT22;8691;50.828;4.700;2022-12-07T14:28:46;7.50;99.90
17152;DHT22;8691;50.828;4.700;2022-12-07T14:31:13;7.50;99.90
17152;DHT22;8691;50.828;4.700;2022-12-07T14:33:40;7.40;99.90
17152;DHT22;8691;50.828;4.700;2022-12-07T14:36:10;7.30;99.90
17152;DHT22;8691;50.828;4.700;2022-12-07T14:38:33;7.30;99.90
17152;DHT22;8691;50.828;4.700;2022-12-07T14:40:59;7.20;99.90
17152;DHT22;8691;50.828;4.700;2022-12-07T14:43:26;7.20;99.90
17152;DHT22;8691;50.828;4.700;2022-12-07T14:45:53;7.10;99.90
17152;DHT22;8691;50.828;4.700;2022-12-07T14:48:20;7.10;99.90
17152;DHT22;8691;50.828;4.700;2022-12-07T14:50:51;7.00;99.90
17152;DHT22;8691;50.828;4.700;2022-12-07T14:53:18;6.80;99.90
17152;DHT22;8691;50.828;4.700;2022-12-07T14:55:44;6.80;99.90
17152;DHT22;8691;50.828;4.700;2022-12-07T14:58:16;6.50;99.90
17152;DHT22;8691;50.828;4.700;2022-12-07T15:00:43;6.30;99.90
17152;DHT22;8691;50.828;4.700;2022-12-07T15:03:09;6.30;99.90
17152;DHT22;8691;50.828;4.700;2022-12-07T15:05:36;6.10;99.90
17152;DHT22;8691;50.828;4.700;2022-12-07T15:08:03;6.10;99.90
17152;DHT22;8691;50.828;4.700;2022-12-07T15:10:31;6.10;99.90
17152;DHT22;8691;50.828;4.700;2022-12-07T15:13:00;6.00;99.90
17152;DHT22;8691;50.828;4.700;2022-12-07T15:15:26;6.00;99.90
17152;DHT22;8691;50.828;4.700;2022-12-07T16:39:28;6.00;99.90
17152;DHT22;8691;50.828;4.700;2022-12-07T16:41:55;5.60;99.90
17152;DHT22;8691;50.828;4.700;2022-12-07T16:44:21;5.60;99.90
17152;DHT22;8691;50.828;4.700;2022-12-07T16:46:48;5.60;99.90
17152;DHT22;8691;50.828;4.700;2022-12-07T16:49:15;5.50;99.90
17152;DHT22;8691;50.828;4.700;2022-12-07T16:51:42;5.40;99.90
17152;DHT22;8691;50.828;4.700;2022-12-07T16:54:10;5.40;99.90
17152;DHT22;8691;50.828;4.700;2022-12-07T16:56:36;5.40;99.90
17152;DHT22;8691;50.828;4.700;2022-12-07T16:59:03;5.40;99.90
17152;DHT22;8691;50.828;4.700;2022-12-07T17:01:29;5.40;99.90
17152;DHT22;8691;50.828;4.700;2022-12-07T17:03:56;5.40;99.90
17152;DHT22;8691;50.828;4.700;2022-12-07T17:06:23;5.40;99.90
17152;DHT22;8691;50.828;4.700;2022-12-07T17:08:50;5.30;99.90
17152;DHT22;8691;50.828;4.700;2022-12-07T17:11:21;5.30;99.90
17152;DHT22;8691;50.828;4.700;2022-12-07T17:13:47;5.30;99.90
17152;DHT22;8691;50.828;4.700;2022-12-07T17:16:32;5.30;99.90
17152;DHT22;8691;50.828;4.700;2022-12-07T17:18:59;5.30;99.90
17152;DHT22;8691;50.828;4.700;2022-12-07T17:21:26;5.20;99.90
17152;DHT22;8691;50.828;4.700;2022-12-07T17:23:53;5.20;99.90
17152;DHT22;8691;50.828;4.700;2022-12-07T17:26:21;5.20;99.90
17152;DHT22;8691;50.828;4.700;2022-12-07T17:28:46;5.20;99.90
17152;DHT22;8691;50.828;4.700;2022-12-07T17:31:14;5.20;99.90
17152;DHT22;8691;50.828;4.700;2022-12-07T17:33:40;5.20;99.90
17152;DHT22;8691;50.828;4.700;2022-12-07T17:36:13;5.20;99.90
17152;DHT22;8691;50.828;4.700;2022-12-07T17:38:39;5.20;99.90
17152;DHT22;8691;50.828;4.700;2022-12-07T17:41:13;5.20;99.90
17152;DHT22;8691;50.828;4.700;2022-12-07T17:43:38;5.20;99.90
17152;DHT22;8691;50.828;4.700;2022-12-07T17:46:06;5.10;99.90
17152;DHT22;8691;50.828;4.700;2022-12-07T17:48:32;5.20;99.90
17152;DHT22;8691;50.828;4.700;2022-12-07T17:50:59;5.20;99.90
17152;DHT22;8691;50.828;4.700;2022-12-07T17:53:47;5.20;99.90
17152;DHT22;8691;50.828;4.700;2022-12-07T17:56:11;5.30;99.90
17152;DHT22;8691;50.828;4.700;2022-12-07T17:58:37;5.30;99.90
17152;DHT22;8691;50.828;4.700;2022-12-07T18:01:07;5.20;99.90
17152;DHT22;8691;50.828;4.700;2022-12-07T18:03:31;5.20;99.90
17152;DHT22;8691;50.828;4.700;2022-12-07T18:05:58;5.20;99.90
17152;DHT22;8691;50.828;4.700;2022-12-07T18:08:25;5.10;99.90
17152;DHT22;8691;50.828;4.700;2022-12-07T18:10:58;5.10;99.90
17152;DHT22;8691;50.828;4.700;2022-12-07T18:13:24;5.10;99.90
17152;DHT22;8691;50.828;4.700;2022-12-07T18:16:05;5.00;99.90
17152;DHT22;8691;50.828;4.700;2022-12-07T18:18:31;5.00;99.90
17152;DHT22;8691;50.828;4.700;2022-12-07T18:21:01;4.90;99.90
17152;DHT22;8691;50.828;4.700;2022-12-07T18:23:25;5.00;99.90
17152;DHT22;8691;50.828;4.700;2022-12-07T18:25:51;4.90;99.90
17152;DHT22;8691;50.828;4.700;2022-12-07T18:28:18;4.90;99.90
17152;DHT22;8691;50.828;4.700;2022-12-07T18:30:45;4.80;99.90
17152;DHT22;8691;50.828;4.700;2022-12-07T18:33:12;4.80;99.90
17152;DHT22;8691;50.828;4.700;2022-12-07T18:35:39;4.70;99.90
17152;DHT22;8691;50.828;4.700;2022-12-07T18:38:06;4.70;99.90
17152;DHT22;8691;50.828;4.700;2022-12-07T18:40:33;4.60;99.90
17152;DHT22;8691;50.828;4.700;2022-12-07T18:42:59;4.60;99.90
17152;DHT22;8691;50.828;4.700;2022-12-07T18:45:26;4.50;99.90
17152;DHT22;8691;50.828;4.700;2022-12-07T18:47:53;4.50;99.90
17152;DHT22;8691;50.828;4.700;2022-12-07T18:50:20;4.50;99.90